Time;durP1;ratioP1;P1;durP2;ratioP2;P2;SDS_P1;SDS_P2;PMS_P1;PMS_P2;Temp;Humidity;BMP_temperature;BMP_pressure;BME280_temperature;BME280_humidity;BME280_pressure;Samples;Min_cycle;Max_cycle;Signal;HPM_P1;HPM_P2
2021/12/08 00:00:05;;;;;;;8.73;2.00;;;3.40;99.90;;;;;;5073825;28;20132;-63
2021/12/08 00:02:31;;;;;;;6.55;2.00;;;3.90;99.90;;;;;;5101603;28;20062;-63
2021/12/08 00:04:56;;;;;;;6.57;2.08;;;3.20;99.90;;;;;;5114280;28;20411;-62
2021/12/08 00:07:22;;;;;;;3.85;1.85;;;3.60;99.90;;;;;;5114285;28;20443;-62
2021/12/08 00:10:00;;;;;;;4.80;2.08;;;3.40;99.90;;;;;;5096323;28;20065;-62
2021/12/08 00:15:11;;;;;;;6.80;2.30;;;3.20;99.90;;;;;;5098878;28;20100;-62
2021/12/08 00:17:36;;;;;;;6.63;2.33;;;3.30;99.90;;;;;;5114662;28;20047;-63
2021/12/08 00:20:04;;;;;;;5.03;2.67;;;3.70;99.90;;;;;;5114147;28;20043;-64
2021/12/08 00:22:30;;;;;;;6.95;2.10;;;3.30;99.90;;;;;;5114114;28;20085;-63
2021/12/08 00:24:56;;;;;;;6.97;2.03;;;4.20;99.90;;;;;;5114112;28;20047;-63
2021/12/08 00:27:22;;;;;;;6.18;2.00;;;3.20;99.90;;;;;;5114646;28;20076;-63
2021/12/08 00:29:48;;;;;;;4.75;1.92;;;4.10;99.90;;;;;;5113823;28;20055;-63
2021/12/08 00:32:14;;;;;;;6.97;2.58;;;3.90;99.90;;;;;;5096658;28;20479;-63
2021/12/08 00:34:39;;;;;;;5.88;2.40;;;3.40;99.90;;;;;;5113912;28;20056;-63
2021/12/08 00:37:06;;;;;;;6.63;1.75;;;3.20;99.90;;;;;;5113939;28;20546;-62
2021/12/08 00:39:33;;;;;;;5.65;2.40;;;2.70;99.90;;;;;;5096290;28;20056;-63
2021/12/08 00:41:59;;;;;;;7.38;1.80;;;3.00;99.90;;;;;;5095793;28;20039;-63
2021/12/08 00:44:24;;;;;;;4.88;1.83;;;2.70;99.90;;;;;;5095757;28;20049;-62
2021/12/08 00:46:50;;;;;;;4.95;2.05;;;3.00;99.90;;;;;;5113865;28;20142;-62
2021/12/08 00:49:16;;;;;;;4.80;1.85;;;4.40;99.90;;;;;;5113581;28;20044;-62
2021/12/08 00:51:43;;;;;;;5.60;2.05;;;2.70;99.90;;;;;;5113765;28;20035;-63
2021/12/08 00:54:08;;;;;;;8.55;2.28;;;2.90;99.90;;;;;;5095864;28;20047;-63
2021/12/08 00:56:36;;;;;;;6.93;1.70;;;3.20;99.90;;;;;;5095702;28;20050;-64
2021/12/08 00:59:03;;;;;;;4.55;1.50;;;4.40;99.90;;;;;;5113762;28;20127;-63
2021/12/08 01:01:29;;;;;;;6.47;1.50;;;2.80;99.90;;;;;;5114134;28;20060;-63
2021/12/08 01:03:56;;;;;;;8.38;2.95;;;3.60;99.90;;;;;;5114015;28;20093;-63
2021/12/08 01:06:21;;;;;;;3.97;1.70;;;3.20;99.90;;;;;;5095536;28;20051;-63
2021/12/08 01:08:47;;;;;;;2.95;1.80;;;3.10;99.90;;;;;;5118227;28;20051;-63
2021/12/08 01:11:16;;;;;;;6.28;1.80;;;3.10;99.90;;;;;;5117696;28;20074;-62
2021/12/08 01:13:43;;;;;;;5.88;2.10;;;3.20;99.90;;;;;;5117334;28;20048;-63
2021/12/08 01:16:09;;;;;;;7.00;1.85;;;3.10;99.90;;;;;;5117410;28;20047;-63
2021/12/08 01:18:35;;;;;;;4.30;1.77;;;3.10;99.90;;;;;;5117354;28;20101;-63
2021/12/08 01:21:05;;;;;;;6.15;1.88;;;3.90;99.90;;;;;;5100147;28;20047;-64
2021/12/08 01:23:31;;;;;;;5.50;1.65;;;3.40;99.90;;;;;;5099219;28;20052;-63
2021/12/08 01:25:57;;;;;;;4.82;1.65;;;3.10;99.90;;;;;;5117532;28;20039;-64
2021/12/08 01:28:23;;;;;;;8.32;1.60;;;3.30;99.90;;;;;;5117138;28;20123;-63
2021/12/08 01:30:52;;;;;;;3.20;1.70;;;3.70;99.90;;;;;;5117064;28;20074;-63
2021/12/08 01:33:20;;;;;;;5.50;1.42;;;2.90;99.90;;;;;;5117048;28;20130;-63
2021/12/08 01:35:46;;;;;;;4.15;1.35;;;3.20;99.90;;;;;;5117027;28;20391;-63
2021/12/08 01:38:12;;;;;;;3.53;1.40;;;4.10;99.90;;;;;;5116965;28;20044;-64
2021/12/08 01:40:38;;;;;;;4.53;1.42;;;3.00;99.90;;;;;;5116912;28;20043;-63
2021/12/08 01:43:12;;;;;;;6.88;2.00;;;3.00;99.90;;;;;;5116793;28;20048;-64
2021/12/08 01:45:57;;;;;;;3.35;1.20;;;4.80;99.90;;;;;;5117159;28;20136;-64
2021/12/08 01:48:23;;;;;;;5.90;1.45;;;4.70;99.90;;;;;;5117053;28;20634;-64
2021/12/08 01:50:51;;;;;;;3.00;1.23;;;3.40;99.90;;;;;;5116664;28;20134;-64
2021/12/08 01:53:17;;;;;;;5.35;1.20;;;5.30;99.90;;;;;;5116673;28;20093;-64
2021/12/08 01:55:43;;;;;;;2.35;1.15;;;3.00;99.90;;;;;;5116316;28;20048;-64
2021/12/08 01:58:11;;;;;;;4.18;1.33;;;3.90;99.90;;;;;;5117136;28;20040;-64
2021/12/08 02:00:47;;;;;;;6.97;1.05;;;3.30;99.90;;;;;;5098935;28;20081;-65
2021/12/08 02:03:15;;;;;;;2.60;1.00;;;3.30;99.90;;;;;;5117243;28;20055;-64
2021/12/08 02:05:41;;;;;;;3.38;1.05;;;3.30;99.90;;;;;;5116974;28;20100;-63
2021/12/08 02:08:07;;;;;;;2.75;1.05;;;4.20;99.90;;;;;;5098382;28;20044;-64
2021/12/08 02:10:35;;;;;;;2.78;1.40;;;3.10;99.90;;;;;;5117236;28;20047;-64
2021/12/08 02:13:00;;;;;;;4.47;1.67;;;4.00;99.90;;;;;;5116212;28;20048;-64
2021/12/08 02:15:26;;;;;;;1.90;1.00;;;3.30;99.90;;;;;;5116832;28;20062;-64
2021/12/08 02:17:55;;;;;;;4.05;1.23;;;4.10;99.90;;;;;;5116732;28;20051;-64
2021/12/08 02:20:24;;;;;;;5.78;1.27;;;3.40;99.90;;;;;;5116346;28;20387;-64
2021/12/08 02:22:50;;;;;;;4.75;1.40;;;3.70;99.90;;;;;;5116129;28;20043;-64
2021/12/08 02:25:19;;;;;;;3.63;1.55;;;3.40;99.90;;;;;;5116101;28;20047;-64
2021/12/08 02:27:45;;;;;;;1.60;1.17;;;3.30;99.90;;;;;;5098402;28;20050;-64
2021/12/08 02:30:20;;;;;;;3.83;1.27;;;4.00;99.90;;;;;;5116520;28;20421;-64
2021/12/08 02:49:03;;;;;;;4.40;2.25;;;4.00;99.90;;;;;;5116439;28;20113;-64
2021/12/08 02:51:29;;;;;;;3.33;1.20;;;3.30;99.90;;;;;;5115480;28;20468;-65
2021/12/08 02:53:57;;;;;;;3.45;1.42;;;3.60;99.90;;;;;;5115507;28;20051;-65
2021/12/08 02:56:23;;;;;;;3.10;1.40;;;3.20;99.90;;;;;;5115448;28;20051;-64
2021/12/08 02:58:48;;;;;;;3.97;1.83;;;3.60;99.90;;;;;;5115379;28;20051;-64
2021/12/08 03:01:15;;;;;;;4.10;1.27;;;3.60;99.90;;;;;;5115708;28;20128;-64
2021/12/08 03:03:42;;;;;;;4.85;1.95;;;5.10;99.90;;;;;;5114861;28;20451;-64
2021/12/08 03:06:10;;;;;;;3.45;1.73;;;3.60;99.90;;;;;;5115783;28;20044;-64
2021/12/08 03:08:35;;;;;;;4.85;2.08;;;3.70;99.90;;;;;;5115169;28;20043;-65
2021/12/08 03:11:01;;;;;;;2.90;1.55;;;3.30;99.90;;;;;;5115056;28;20131;-64
2021/12/08 03:13:41;;;;;;;5.00;2.13;;;3.70;99.90;;;;;;5096899;28;20042;-65
2021/12/08 03:16:09;;;;;;;3.30;1.80;;;3.40;99.90;;;;;;5096926;28;20085;-65
2021/12/08 03:18:36;;;;;;;7.15;2.47;;;4.00;99.90;;;;;;5115014;28;20396;-65
2021/12/08 03:21:06;;;;;;;3.03;2.33;;;3.70;99.90;;;;;;5114963;28;20048;-65
2021/12/08 03:23:44;;;;;;;2.70;1.60;;;3.70;99.90;;;;;;5114853;28;20094;-65
2021/12/08 03:26:09;;;;;;;4.70;2.13;;;4.50;99.90;;;;;;5114954;28;20153;-65
2021/12/08 03:28:42;;;;;;;4.65;1.60;;;5.00;99.90;;;;;;5115113;28;20043;-66
2021/12/08 03:31:13;;;;;;;4.43;2.05;;;3.70;99.90;;;;;;5115327;28;20122;-65
2021/12/08 03:33:41;;;;;;;4.95;1.73;;;3.70;99.90;;;;;;5115382;28;20399;-65
2021/12/08 03:36:07;;;;;;;3.17;1.88;;;4.30;99.90;;;;;;5114662;28;20039;-65
2021/12/08 03:38:33;;;;;;;4.07;1.70;;;3.90;99.90;;;;;;5097055;28;20092;-65
2021/12/08 03:41:02;;;;;;;3.10;1.30;;;3.80;99.90;;;;;;5114703;28;20048;-65
2021/12/08 03:43:29;;;;;;;2.17;1.65;;;4.50;99.90;;;;;;5114453;28;20047;-65
2021/12/08 03:45:56;;;;;;;3.70;1.67;;;5.40;99.90;;;;;;5115084;28;20360;-65
2021/12/08 03:48:49;;;;;;;8.43;1.98;;;3.70;99.90;;;;;;5114216;28;20051;-65
2021/12/08 03:51:16;;;;;;;3.83;2.00;;;3.60;99.90;;;;;;5096525;28;20043;-65
2021/12/08 03:53:42;;;;;;;3.75;2.13;;;3.90;99.90;;;;;;5114411;28;20047;-65
2021/12/08 03:56:08;;;;;;;2.65;1.98;;;4.30;99.90;;;;;;5096447;28;20054;-65
2021/12/08 03:58:34;;;;;;;3.78;2.00;;;3.70;99.90;;;;;;5114331;28;20043;-65
2021/12/08 04:01:02;;;;;;;6.07;2.00;;;3.60;99.90;;;;;;5114373;28;20051;-64
2021/12/08 04:03:31;;;;;;;3.38;1.55;;;5.00;99.90;;;;;;5095945;28;20055;-65
2021/12/08 04:06:02;;;;;;;3.55;1.80;;;4.40;99.90;;;;;;5114252;28;20039;-65
2021/12/08 04:08:39;;;;;;;7.45;2.15;;;4.80;99.90;;;;;;5114316;28;20097;-65
2021/12/08 04:11:06;;;;;;;5.22;2.25;;;4.00;99.90;;;;;;5097058;28;20050;-65
2021/12/08 04:13:46;;;;;;;3.97;2.60;;;4.00;99.90;;;;;;5114063;28;20483;-65
2021/12/08 04:16:15;;;;;;;5.20;2.13;;;4.10;99.90;;;;;;5114239;28;20051;-64
2021/12/08 04:18:41;;;;;;;4.05;2.20;;;4.10;99.90;;;;;;5114144;28;20047;-65
2021/12/08 04:21:09;;;;;;;2.83;1.90;;;4.20;99.90;;;;;;5114104;28;20051;-65
2021/12/08 04:23:39;;;;;;;4.90;2.45;;;3.80;99.90;;;;;;5114638;28;20072;-65
2021/12/08 04:26:18;;;;;;;3.08;2.65;;;4.40;99.90;;;;;;5114380;28;20047;-64
2021/12/08 04:28:44;;;;;;;4.55;2.75;;;4.20;99.90;;;;;;5114660;28;20097;-64
2021/12/08 04:31:23;;;;;;;3.72;2.15;;;4.20;99.90;;;;;;5113982;28;20044;-64
2021/12/08 04:33:55;;;;;;;6.68;2.95;;;4.50;99.90;;;;;;5114313;28;20044;-64
2021/12/08 04:36:23;;;;;;;3.75;3.00;;;4.20;99.90;;;;;;5114013;28;20058;-64
2021/12/08 04:38:53;;;;;;;5.07;2.60;;;4.20;99.90;;;;;;5113950;28;20044;-64
2021/12/08 04:41:34;;;;;;;5.90;2.80;;;5.00;99.90;;;;;;5114614;28;20047;-64
2021/12/08 04:44:11;;;;;;;6.72;2.85;;;4.30;99.90;;;;;;5100095;28;20043;-64
2021/12/08 04:46:59;;;;;;;4.60;3.20;;;4.70;99.90;;;;;;5118024;28;20050;-64
2021/12/08 04:52:28;;;;;;;5.50;2.90;;;4.40;99.90;;;;;;5118399;28;20051;-65
2021/12/08 05:06:47;;;;;;;5.63;4.20;;;4.40;99.90;;;;;;5099629;28;20090;-65
2021/12/08 05:08:42;;;;;;;5.82;3.88;;;4.50;99.90;;;;;;5081630;28;20043;-65
2021/12/08 05:11:18;;;;;;;4.55;3.70;;;4.50;99.90;;;;;;5117453;28;20429;-65
2021/12/08 05:13:48;;;;;;;6.85;4.30;;;4.60;99.90;;;;;;5117348;28;20047;-65
2021/12/08 05:16:17;;;;;;;7.72;3.75;;;4.50;99.90;;;;;;5117422;28;20050;-65
2021/12/08 05:18:45;;;;;;;6.40;4.53;;;4.60;99.90;;;;;;5117393;28;20044;-65
2021/12/08 05:21:14;;;;;;;5.88;4.15;;;4.60;99.90;;;;;;5117289;28;20050;-65
2021/12/08 05:23:52;;;;;;;4.95;4.22;;;4.50;99.90;;;;;;5117216;28;20134;-65
2021/12/08 05:26:51;;;;;;;6.38;4.15;;;4.50;99.90;;;;;;5117830;28;20047;-65
2021/12/08 05:29:24;;;;;;;6.57;4.40;;;4.60;99.90;;;;;;5100097;28;20104;-64
2021/12/08 05:31:51;;;;;;;6.75;4.65;;;4.60;99.90;;;;;;5117107;28;20048;-64
2021/12/08 05:34:18;;;;;;;6.43;4.80;;;4.50;99.90;;;;;;5099145;28;20048;-65
2021/12/08 05:36:45;;;;;;;6.00;4.45;;;4.70;99.90;;;;;;5082196;28;20173;-65
2021/12/08 05:39:19;;;;;;;6.60;5.07;;;4.60;99.90;;;;;;5117529;28;20047;-64
2021/12/08 05:41:48;;;;;;;7.78;4.68;;;4.70;99.90;;;;;;5117524;28;20040;-65
2021/12/08 05:44:15;;;;;;;7.45;5.03;;;4.50;99.90;;;;;;5116785;28;20044;-65
2021/12/08 05:46:44;;;;;;;8.13;4.82;;;4.80;99.90;;;;;;5116809;28;20043;-65
2021/12/08 05:49:14;;;;;;;6.85;4.35;;;4.80;99.90;;;;;;5116780;28;20051;-64
2021/12/08 05:51:42;;;;;;;6.72;4.85;;;5.00;99.90;;;;;;5099209;28;20529;-65
2021/12/08 05:54:13;;;;;;;6.07;4.68;;;4.80;99.90;;;;;;5116088;28;20388;-65
2021/12/08 05:56:41;;;;;;;6.63;4.75;;;4.80;99.90;;;;;;5116727;28;20035;-65
2021/12/08 05:59:10;;;;;;;6.03;4.75;;;4.80;99.90;;;;;;5116592;28;20118;-65
2021/12/08 06:02:14;;;;;;;8.38;5.00;;;4.80;99.90;;;;;;5116259;28;20047;-65
2021/12/08 06:04:41;;;;;;;6.70;4.45;;;4.80;99.90;;;;;;5116582;28;20054;-65
2021/12/08 06:07:07;;;;;;;7.60;4.53;;;4.70;99.90;;;;;;5098301;28;20043;-65
2021/12/08 06:09:35;;;;;;;6.00;4.32;;;5.40;99.90;;;;;;5099220;28;20067;-65
2021/12/08 06:12:03;;;;;;;5.35;4.15;;;4.90;99.90;;;;;;5116242;28;20083;-65
2021/12/08 06:14:32;;;;;;;7.47;4.28;;;4.90;99.90;;;;;;5116078;28;20052;-65
2021/12/08 06:17:06;;;;;;;6.10;4.10;;;4.90;99.90;;;;;;5115950;28;20052;-64
2021/12/08 06:19:35;;;;;;;5.03;3.45;;;4.90;99.90;;;;;;5116263;28;20054;-65
2021/12/08 06:22:03;;;;;;;8.00;3.83;;;4.90;99.90;;;;;;5116647;28;20075;-65
2021/12/08 06:24:29;;;;;;;6.38;3.67;;;4.80;99.90;;;;;;5116110;28;20113;-65
2021/12/08 06:26:55;;;;;;;7.03;3.78;;;4.80;99.90;;;;;;5116603;28;20040;-65
2021/12/08 06:29:21;;;;;;;7.85;4.18;;;4.80;99.90;;;;;;5115974;28;20047;-65
2021/12/08 06:31:52;;;;;;;5.97;3.78;;;4.80;99.90;;;;;;5115858;28;20043;-65
2021/12/08 06:34:18;;;;;;;5.68;4.03;;;4.80;99.90;;;;;;5115984;28;20070;-65
2021/12/08 06:37:10;;;;;;;5.03;3.60;;;5.30;99.90;;;;;;5115838;28;20107;-65
2021/12/08 06:39:40;;;;;;;5.43;3.92;;;5.40;99.90;;;;;;5115816;28;20126;-65
2021/12/08 06:42:12;;;;;;;7.53;4.28;;;4.70;99.90;;;;;;5115877;28;20040;-65
2021/12/08 06:44:42;;;;;;;7.22;4.28;;;4.80;99.90;;;;;;5115981;28;20048;-65
2021/12/08 06:47:12;;;;;;;6.35;3.83;;;5.00;99.90;;;;;;5115676;28;20044;-65
2021/12/08 06:49:38;;;;;;;5.13;3.92;;;4.80;99.90;;;;;;5115626;28;20105;-65
2021/12/08 06:52:14;;;;;;;5.35;3.55;;;5.50;99.90;;;;;;5097407;28;20043;-65
2021/12/08 06:54:54;;;;;;;7.95;4.05;;;4.90;99.90;;;;;;5080664;28;20086;-65
2021/12/08 06:57:33;;;;;;;6.45;3.78;;;4.80;99.90;;;;;;5115489;28;20062;-65
2021/12/08 07:00:16;;;;;;;4.40;3.20;;;4.80;99.90;;;;;;5115933;28;20055;-65
2021/12/08 07:05:28;;;;;;;7.07;3.17;;;5.40;99.90;;;;;;5115165;28;20101;-64
2021/12/08 07:08:05;;;;;;;4.63;2.85;;;4.90;99.90;;;;;;5115196;28;20048;-65
2021/12/08 07:10:38;;;;;;;5.07;3.35;;;4.90;99.90;;;;;;5115721;28;20039;-65
2021/12/08 07:13:13;;;;;;;5.97;3.55;;;4.90;99.90;;;;;;5115135;28;20123;-65
2021/12/08 07:15:41;;;;;;;4.88;3.47;;;4.90;99.90;;;;;;5080458;28;20147;-65
2021/12/08 07:18:11;;;;;;;6.15;4.70;;;4.90;99.90;;;;;;5114694;28;20500;-65
2021/12/08 07:20:45;;;;;;;5.88;3.67;;;4.90;99.90;;;;;;5097692;28;20051;-65
2021/12/08 07:23:23;;;;;;;6.65;3.45;;;4.90;99.90;;;;;;5115479;28;20036;-65
2021/12/08 07:25:51;;;;;;;5.78;3.50;;;4.90;99.90;;;;;;5114705;28;20483;-65
2021/12/08 07:28:18;;;;;;;4.68;3.25;;;4.80;99.90;;;;;;5114738;28;20040;-65
2021/12/08 07:31:05;;;;;;;6.57;3.40;;;5.40;99.90;;;;;;5115626;28;20086;-65
2021/12/08 07:33:31;;;;;;;5.57;3.03;;;4.90;99.90;;;;;;5115050;28;20104;-65
2021/12/08 07:36:00;;;;;;;5.60;3.28;;;5.30;99.90;;;;;;5096770;28;20039;-65
2021/12/08 07:38:29;;;;;;;5.22;3.05;;;4.90;99.90;;;;;;5115512;28;20079;-65
2021/12/08 07:41:08;;;;;;;5.18;3.17;;;4.50;99.90;;;;;;5114602;28;20494;-65
2021/12/08 07:43:38;;;;;;;5.53;2.90;;;4.80;99.90;;;;;;5096472;28;20051;-65
2021/12/08 07:46:12;;;;;;;4.50;2.67;;;5.30;99.90;;;;;;5097220;28;20040;-65
2021/12/08 07:48:52;;;;;;;5.65;3.05;;;4.80;99.90;;;;;;5096472;28;20047;-65
2021/12/08 07:51:24;;;;;;;4.80;2.60;;;4.80;99.90;;;;;;5114248;28;20085;-65
2021/12/08 07:53:51;;;;;;;4.80;2.67;;;4.70;99.90;;;;;;5114159;28;20050;-65
2021/12/08 07:56:19;;;;;;;6.22;2.47;;;4.80;99.90;;;;;;5079202;28;20488;-65
2021/12/08 07:58:51;;;;;;;7.95;3.33;;;5.30;99.90;;;;;;5114483;28;20491;-65
2021/12/08 08:01:21;;;;;;;3.75;2.40;;;4.70;99.90;;;;;;5115170;28;20118;-65
2021/12/08 08:03:48;;;;;;;3.67;2.10;;;4.80;99.90;;;;;;5114757;28;20055;-65
2021/12/08 08:06:19;;;;;;;4.28;2.65;;;4.80;99.90;;;;;;5096021;28;20055;-65
2021/12/08 08:08:45;;;;;;;3.35;2.38;;;4.80;99.90;;;;;;5114153;28;20530;-66
2021/12/08 08:11:25;;;;;;;5.35;2.30;;;5.10;99.90;;;;;;5114041;28;20039;-66
2021/12/08 08:13:52;;;;;;;3.00;2.00;;;5.30;99.90;;;;;;5095757;28;20044;-66
2021/12/08 08:16:22;;;;;;;4.00;2.20;;;4.80;99.90;;;;;;5113405;28;20044;-66
2021/12/08 08:18:56;;;;;;;4.47;2.50;;;4.80;99.90;;;;;;5113776;28;20051;-66
2021/12/08 08:21:26;;;;;;;3.40;1.95;;;4.70;99.90;;;;;;5114007;28;20039;-65
2021/12/08 08:23:52;;;;;;;6.95;2.35;;;5.00;99.90;;;;;;5095962;28;20046;-65
2021/12/08 08:26:18;;;;;;;3.88;2.08;;;5.40;99.90;;;;;;5095875;28;20063;-65
2021/12/08 08:28:50;;;;;;;4.38;1.80;;;5.20;99.90;;;;;;5095801;28;20073;-65
2021/12/08 08:31:33;;;;;;;5.15;1.70;;;4.90;99.90;;;;;;5096856;28;20040;-65
2021/12/08 08:34:00;;;;;;;4.57;1.88;;;4.90;99.90;;;;;;5114664;28;20387;-65
2021/12/08 08:36:33;;;;;;;3.63;1.77;;;4.90;99.90;;;;;;5114522;28;20051;-65
2021/12/08 08:39:09;;;;;;;3.42;1.77;;;5.40;99.90;;;;;;5113939;28;20055;-65
2021/12/08 08:42:01;;;;;;;3.45;1.60;;;4.90;99.90;;;;;;5114746;28;20115;-66
2021/12/08 08:44:58;;;;;;;5.43;1.52;;;4.90;99.90;;;;;;5113621;28;20083;-66
2021/12/08 08:47:32;;;;;;;2.97;1.40;;;4.60;99.90;;;;;;5114735;28;20059;-67
2021/12/08 08:49:58;;;;;;;3.88;1.70;;;4.90;99.90;;;;;;5095757;28;20490;-66
2021/12/08 08:52:29;;;;;;;3.75;1.60;;;5.10;99.90;;;;;;5079166;28;20044;-66
2021/12/08 08:55:00;;;;;;;3.35;1.30;;;5.00;99.90;;;;;;5096407;28;20475;-67
2021/12/08 08:57:34;;;;;;;5.05;1.58;;;5.30;99.90;;;;;;5114386;28;20043;-66
2021/12/08 09:00:13;;;;;;;7.75;1.92;;;4.70;99.90;;;;;;5113780;28;20071;-67
2021/12/08 09:02:39;;;;;;;4.47;1.55;;;5.10;99.90;;;;;;5095524;28;20465;-66
2021/12/08 09:05:14;;;;;;;3.47;1.23;;;5.10;99.90;;;;;;5113643;28;20043;-66
2021/12/08 09:07:43;;;;;;;4.25;1.45;;;5.40;99.90;;;;;;5114280;28;20039;-66
2021/12/08 09:10:21;;;;;;;6.07;1.63;;;5.10;99.90;;;;;;5114237;28;20040;-66
2021/12/08 09:13:16;;;;;;;4.55;0.98;;;5.10;99.90;;;;;;5093584;28;20043;-66
2021/12/08 09:15:48;;;;;;;3.92;0.82;;;5.20;99.90;;;;;;5062498;28;20054;-66
2021/12/08 09:18:22;;;;;;;5.57;1.00;;;5.10;99.90;;;;;;5092718;28;20043;-66
2021/12/08 09:21:12;;;;;;;3.50;1.20;;;5.20;99.90;;;;;;5092111;28;20100;-66
2021/12/08 09:24:10;;;;;;;4.60;0.90;;;5.20;99.90;;;;;;5109760;28;20425;-65
2021/12/08 09:26:45;;;;;;;2.83;0.80;;;5.20;99.90;;;;;;5110066;28;20075;-65
2021/12/08 09:29:21;;;;;;;4.45;1.10;;;5.20;99.90;;;;;;5112550;28;20092;-65
2021/12/08 09:31:56;;;;;;;5.75;1.23;;;5.30;99.90;;;;;;5095405;28;20050;-65
2021/12/08 09:34:27;;;;;;;5.78;0.85;;;5.30;99.90;;;;;;5095658;28;20360;-65
2021/12/08 09:37:08;;;;;;;4.13;1.17;;;5.30;99.90;;;;;;5113601;28;20483;-65
2021/12/08 09:39:39;;;;;;;8.07;1.02;;;5.40;99.90;;;;;;5113940;28;20048;-65
2021/12/08 09:42:10;;;;;;;3.28;0.90;;;5.40;99.90;;;;;;5113898;28;20043;-65
2021/12/08 09:44:43;;;;;;;3.15;1.15;;;5.50;99.90;;;;;;5113835;28;20040;-65
2021/12/08 09:47:09;;;;;;;7.00;0.80;;;5.60;99.90;;;;;;5113845;28;20115;-65
2021/12/08 09:49:35;;;;;;;6.13;1.00;;;5.60;99.90;;;;;;5113645;28;20522;-66
2021/12/08 09:52:05;;;;;;;4.65;1.20;;;5.70;99.90;;;;;;5095669;28;20114;-65
2021/12/08 09:54:32;;;;;;;4.82;0.82;;;5.70;99.90;;;;;;5095883;28;20383;-65
2021/12/08 09:56:59;;;;;;;4.30;1.10;;;5.90;99.90;;;;;;5095024;28;20046;-65
2021/12/08 09:59:25;;;;;;;5.53;1.30;;;5.80;99.90;;;;;;5113344;28;20081;-66
2021/12/08 10:01:53;;;;;;;7.55;1.77;;;6.30;99.90;;;;;;5095174;28;20036;-65
2021/12/08 10:04:19;;;;;;;4.10;0.88;;;5.70;99.90;;;;;;5078645;28;20494;-66
2021/12/08 10:06:49;;;;;;;4.35;0.90;;;6.30;99.90;;;;;;5078316;28;20075;-65
2021/12/08 10:09:19;;;;;;;2.20;0.77;;;5.80;99.90;;;;;;5095555;28;20118;-65
2021/12/08 10:11:46;;;;;;;6.38;0.98;;;5.80;99.90;;;;;;5113349;28;20452;-66
2021/12/08 10:14:13;;;;;;;4.55;0.80;;;5.80;99.90;;;;;;5078110;28;20047;-65
2021/12/08 10:16:39;;;;;;;6.75;1.05;;;5.80;99.90;;;;;;5113152;28;20047;-65
2021/12/08 10:19:05;;;;;;;6.25;1.20;;;5.80;99.90;;;;;;5113473;28;20043;-65
2021/12/08 10:21:36;;;;;;;3.50;1.00;;;5.70;99.90;;;;;;5077917;28;20445;-65
2021/12/08 10:24:22;;;;;;;3.58;0.90;;;5.90;99.90;;;;;;5094943;28;20046;-65
2021/12/08 10:26:50;;;;;;;4.10;1.00;;;5.90;99.90;;;;;;5094825;28;20044;-65
2021/12/08 10:29:23;;;;;;;5.32;1.23;;;5.90;99.90;;;;;;5113220;28;20043;-65
2021/12/08 10:31:49;;;;;;;5.73;1.03;;;5.90;99.90;;;;;;5112840;28;20035;-65
2021/12/08 10:36:55;;;;;;;3.75;1.05;;;6.50;99.90;;;;;;5094610;28;20047;-65
2021/12/08 10:39:33;;;;;;;3.60;1.00;;;5.90;99.90;;;;;;5112405;28;20039;-65
2021/12/08 10:42:19;;;;;;;6.65;1.08;;;5.90;99.90;;;;;;5112748;28;20432;-65
2021/12/08 10:44:53;;;;;;;3.85;1.13;;;5.90;99.90;;;;;;5112115;28;20503;-65
2021/12/08 10:47:39;;;;;;;8.27;1.10;;;6.00;99.90;;;;;;5077880;28;20039;-65
2021/12/08 10:55:40;;;;;;;4.15;1.13;;;6.00;99.90;;;;;;5112599;28;20122;-65
2021/12/08 10:58:19;;;;;;;6.07;1.05;;;6.00;99.90;;;;;;5112554;28;20039;-65
2021/12/08 11:00:45;;;;;;;4.13;1.27;;;6.10;99.90;;;;;;5097582;28;20480;-66
2021/12/08 11:03:12;;;;;;;3.67;1.30;;;6.40;99.90;;;;;;5115422;28;20055;-66
2021/12/08 11:05:44;;;;;;;4.07;1.60;;;6.50;99.90;;;;;;5097541;28;20379;-66
2021/12/08 11:08:30;;;;;;;3.10;1.52;;;6.10;99.90;;;;;;5115155;28;20051;-66
2021/12/08 11:11:04;;;;;;;4.63;1.52;;;6.10;99.90;;;;;;5115167;28;20043;-66
2021/12/08 11:13:42;;;;;;;6.28;1.20;;;6.10;99.90;;;;;;5097408;28;20047;-66
2021/12/08 11:16:11;;;;;;;4.00;1.08;;;6.10;99.90;;;;;;5115043;28;20122;-66
2021/12/08 11:18:40;;;;;;;5.82;1.27;;;6.10;99.90;;;;;;5096956;28;20103;-66
2021/12/08 11:21:16;;;;;;;3.95;0.90;;;6.20;99.90;;;;;;5114917;28;20059;-66
2021/12/08 11:23:49;;;;;;;3.65;2.10;;;6.30;99.90;;;;;;5114859;28;20098;-66
2021/12/08 11:26:26;;;;;;;2.13;1.05;;;6.20;99.90;;;;;;5114910;28;20502;-66
2021/12/08 11:29:12;;;;;;;5.03;1.00;;;6.20;99.90;;;;;;5097612;28;20047;-66
2021/12/08 11:31:59;;;;;;;4.57;1.23;;;6.20;99.90;;;;;;5115335;28;20043;-66
2021/12/08 11:34:29;;;;;;;5.10;1.02;;;6.20;99.90;;;;;;5115117;28;20043;-66
2021/12/08 11:36:57;;;;;;;1.50;0.95;;;6.40;99.90;;;;;;5097105;28;20043;-65
2021/12/08 11:39:45;;;;;;;3.72;1.50;;;6.20;99.90;;;;;;5096816;28;20048;-66
2021/12/08 11:42:12;;;;;;;3.15;1.00;;;6.20;99.90;;;;;;5114450;28;20453;-66
2021/12/08 11:44:47;;;;;;;5.20;0.95;;;6.20;99.90;;;;;;5114510;28;20093;-65
2021/12/08 11:47:16;;;;;;;6.72;1.58;;;6.10;99.90;;;;;;5114557;28;20131;-65
2021/12/08 11:49:46;;;;;;;5.32;1.10;;;6.20;99.90;;;;;;5115017;28;20049;-66
2021/12/08 11:52:18;;;;;;;2.92;1.10;;;6.20;99.90;;;;;;5113530;28;20118;-66
2021/12/08 11:55:21;;;;;;;5.55;1.20;;;6.20;99.90;;;;;;5114194;28;20507;-66
2021/12/08 11:57:56;;;;;;;2.63;1.08;;;6.20;99.90;;;;;;5093918;28;20059;-66
2021/12/08 12:00:32;;;;;;;4.18;1.27;;;6.30;99.90;;;;;;5096306;28;20047;-65
2021/12/08 12:03:09;;;;;;;3.67;0.98;;;6.30;99.90;;;;;;5114809;28;20497;-65
2021/12/08 12:05:40;;;;;;;7.45;1.23;;;6.30;99.90;;;;;;5114917;28;20112;-66
2021/12/08 12:08:09;;;;;;;2.90;1.13;;;6.30;99.90;;;;;;5114268;28;20047;-66
2021/12/08 12:10:40;;;;;;;5.82;1.48;;;6.30;99.90;;;;;;5095908;28;20449;-66
2021/12/08 12:13:10;;;;;;;7.55;1.33;;;6.30;99.90;;;;;;5114192;28;20073;-65
2021/12/08 12:15:40;;;;;;;4.60;1.35;;;6.30;99.90;;;;;;5114974;28;20051;-67
2021/12/08 12:18:06;;;;;;;6.20;1.48;;;6.30;99.90;;;;;;5096233;28;20054;-66
2021/12/08 12:20:42;;;;;;;5.22;1.63;;;6.30;99.90;;;;;;5114043;28;20048;-66
2021/12/08 12:23:26;;;;;;;5.95;1.35;;;6.30;99.90;;;;;;5114451;28;20089;-66
2021/12/08 12:26:04;;;;;;;4.10;1.23;;;6.30;99.90;;;;;;5114133;28;20043;-66
2021/12/08 12:28:49;;;;;;;5.18;1.40;;;6.40;99.90;;;;;;5113974;28;20051;-66
2021/12/08 12:31:43;;;;;;;4.68;1.27;;;6.30;99.90;;;;;;5114018;28;20048;-66
2021/12/08 12:34:42;;;;;;;5.63;1.48;;;6.30;99.90;;;;;;5114593;28;20055;-66
2021/12/08 12:37:16;;;;;;;3.35;1.00;;;6.30;99.90;;;;;;5113997;28;20051;-66
2021/12/08 12:39:52;;;;;;;2.80;1.10;;;6.30;99.90;;;;;;5114442;28;20050;-65
2021/12/08 12:42:19;;;;;;;4.05;1.15;;;6.30;99.90;;;;;;5114227;28;20076;-66
2021/12/08 12:44:57;;;;;;;4.65;1.02;;;6.30;99.90;;;;;;5114059;28;20132;-66
2021/12/08 12:47:26;;;;;;;5.57;1.33;;;6.40;99.90;;;;;;5113812;28;20047;-66
2021/12/08 12:50:03;;;;;;;3.55;1.20;;;6.40;99.90;;;;;;5113823;28;20090;-66
2021/12/08 12:52:40;;;;;;;5.85;1.40;;;6.40;99.90;;;;;;5096569;28;20131;-66
2021/12/08 12:55:13;;;;;;;3.95;1.13;;;6.40;99.90;;;;;;5113866;28;20043;-66
2021/12/08 12:58:01;;;;;;;5.35;1.17;;;6.40;99.90;;;;;;5114107;28;20051;-66
2021/12/08 13:00:40;;;;;;;5.63;1.65;;;6.40;99.90;;;;;;5113773;28;20052;-66
2021/12/08 13:03:08;;;;;;;5.80;1.50;;;6.40;99.90;;;;;;5096701;28;20060;-66
2021/12/08 13:05:52;;;;;;;8.25;1.15;;;6.40;99.90;;;;;;5117640;28;20055;-65
2021/12/08 13:08:29;;;;;;;3.58;1.15;;;6.40;99.90;;;;;;5099585;28;20052;-65
2021/12/08 13:10:56;;;;;;;2.80;1.17;;;6.40;99.90;;;;;;5117604;28;20381;-64
2021/12/08 13:13:22;;;;;;;3.90;1.42;;;6.40;99.90;;;;;;5117379;28;20035;-65
2021/12/08 13:15:48;;;;;;;5.20;0.90;;;6.70;99.90;;;;;;5099187;28;20057;-65
2021/12/08 13:18:18;;;;;;;3.05;0.93;;;6.30;99.90;;;;;;5117367;28;20048;-65
2021/12/08 13:20:43;;;;;;;3.50;1.05;;;6.40;99.90;;;;;;5117955;28;20096;-66
2021/12/08 13:23:14;;;;;;;3.20;1.00;;;6.40;99.90;;;;;;5117367;28;20044;-66
2021/12/08 13:28:12;;;;;;;4.25;1.02;;;6.30;99.90;;;;;;5116916;28;20499;-66
2021/12/08 13:31:00;;;;;;;3.20;1.00;;;6.30;99.90;;;;;;5117643;28;20134;-66
2021/12/08 13:33:30;;;;;;;3.35;1.00;;;6.30;99.90;;;;;;5117596;28;20371;-66
2021/12/08 13:35:59;;;;;;;4.93;1.08;;;6.40;99.90;;;;;;5117113;28;20039;-67
2021/12/08 13:38:26;;;;;;;5.18;1.02;;;6.30;99.90;;;;;;5116693;28;20507;-66
2021/12/08 13:40:57;;;;;;;5.53;1.10;;;6.30;99.90;;;;;;5116941;28;20047;-66
2021/12/08 13:43:41;;;;;;;4.53;0.98;;;6.30;99.90;;;;;;5116962;28;20044;-66
2021/12/08 13:46:11;;;;;;;6.15;1.10;;;6.30;99.90;;;;;;5116759;28;20046;-65
2021/12/08 13:49:28;;;;;;;4.35;1.00;;;6.40;99.90;;;;;;5117120;28;20055;-66
2021/12/08 13:52:09;;;;;;;2.55;0.80;;;6.40;99.90;;;;;;5104067;28;20473;-66
2021/12/08 13:54:37;;;;;;;3.97;0.73;;;6.40;99.90;;;;;;5116719;28;20096;-67
2021/12/08 13:57:36;;;;;;;3.15;1.02;;;6.40;99.90;;;;;;5098416;28;20403;-66
2021/12/08 14:00:18;;;;;;;2.53;0.80;;;6.80;99.90;;;;;;5116579;28;20104;-65
2021/12/08 14:02:47;;;;;;;5.05;1.30;;;6.30;99.90;;;;;;5099141;28;20384;-65
2021/12/08 14:05:23;;;;;;;5.05;1.10;;;6.30;99.90;;;;;;5099159;28;20387;-69
2021/12/08 14:07:53;;;;;;;4.68;0.80;;;6.30;99.90;;;;;;5116719;28;20043;-66